sensor_id;sensor_type;location;lat;lon;timestamp;pressure;altitude;pressure_sealevel;temperature;humidity
57050;BME280;42935;50.966;16.992;2023-05-13T00:03:16;101905.38;;;10.20;67.20
57050;BME280;42935;50.966;16.992;2023-05-13T00:06:35;101922.21;;;9.81;69.02
57050;BME280;42935;50.966;16.992;2023-05-13T00:09:56;101934.83;;;9.54;72.21
57050;BME280;42935;50.966;16.992;2023-05-13T00:13:14;101942.16;;;9.12;76.37
57050;BME280;42935;50.966;16.992;2023-05-13T00:16:37;101935.81;;;9.17;75.55
57050;BME280;42935;50.966;16.992;2023-05-13T00:19:58;101932.18;;;9.24;74.62
57050;BME280;42935;50.966;16.992;2023-05-13T00:23:15;101941.69;;;9.40;73.21
57050;BME280;42935;50.966;16.992;2023-05-13T00:26:34;101942.05;;;9.28;74.04
57050;BME280;42935;50.966;16.992;2023-05-13T00:29:50;101941.24;;;9.30;73.18
57050;BME280;42935;50.966;16.992;2023-05-13T00:33:15;101945.13;;;9.14;73.95
57050;BME280;42935;50.966;16.992;2023-05-13T00:36:42;101942.17;;;9.22;72.86
57050;BME280;42935;50.966;16.992;2023-05-13T00:40:04;101944.64;;;9.25;72.56
57050;BME280;42935;50.966;16.992;2023-05-13T00:43:23;101951.63;;;9.28;71.45
57050;BME280;42935;50.966;16.992;2023-05-13T00:46:42;101956.55;;;9.08;72.10
57050;BME280;42935;50.966;16.992;2023-05-13T00:50:02;101950.86;;;9.03;72.13
57050;BME280;42935;50.966;16.992;2023-05-13T00:53:32;101955.55;;;9.08;72.07
57050;BME280;42935;50.966;16.992;2023-05-13T00:56:54;101959.36;;;8.84;73.64
57050;BME280;42935;50.966;16.992;2023-05-13T01:00:15;101952.48;;;8.83;74.10
57050;BME280;42935;50.966;16.992;2023-05-13T01:03:49;101958.01;;;8.80;74.01
57050;BME280;42935;50.966;16.992;2023-05-13T01:07:15;101958.93;;;8.73;74.50
57050;BME280;42935;50.966;16.992;2023-05-13T01:10:45;101960.28;;;8.52;75.33
57050;BME280;42935;50.966;16.992;2023-05-13T01:14:12;101960.30;;;8.55;74.73
57050;BME280;42935;50.966;16.992;2023-05-13T01:21:11;101969.20;;;8.18;77.53
57050;BME280;42935;50.966;16.992;2023-05-13T01:24:36;101966.43;;;8.18;77.61
57050;BME280;42935;50.966;16.992;2023-05-13T01:27:56;101967.95;;;8.16;79.16
57050;BME280;42935;50.966;16.992;2023-05-13T01:31:17;101967.27;;;8.05;79.41
57050;BME280;42935;50.966;16.992;2023-05-13T01:34:43;101971.12;;;7.83;80.74
57050;BME280;42935;50.966;16.992;2023-05-13T01:38:05;101967.77;;;7.91;80.21
57050;BME280;42935;50.966;16.992;2023-05-13T01:41:30;101973.40;;;7.78;80.92
57050;BME280;42935;50.966;16.992;2023-05-13T01:44:52;101971.59;;;7.81;80.59
57050;BME280;42935;50.966;16.992;2023-05-13T01:48:12;101973.59;;;7.80;82.65
57050;BME280;42935;50.966;16.992;2023-05-13T01:51:41;101968.98;;;7.74;84.80
57050;BME280;42935;50.966;16.992;2023-05-13T01:55:00;101971.63;;;7.58;89.42
57050;BME280;42935;50.966;16.992;2023-05-13T01:58:21;101967.08;;;7.66;88.13
57050;BME280;42935;50.966;16.992;2023-05-13T02:01:44;101964.08;;;7.74;85.92
57050;BME280;42935;50.966;16.992;2023-05-13T02:05:05;101959.36;;;7.75;85.41
57050;BME280;42935;50.966;16.992;2023-05-13T02:08:27;101963.78;;;7.74;84.96
57050;BME280;42935;50.966;16.992;2023-05-13T02:11:47;101961.41;;;7.74;84.51
57050;BME280;42935;50.966;16.992;2023-05-13T02:15:09;101961.61;;;7.78;84.61
57050;BME280;42935;50.966;16.992;2023-05-13T02:18:30;101958.52;;;7.67;84.73
57050;BME280;42935;50.966;16.992;2023-05-13T02:21:56;101957.39;;;7.55;85.30
57050;BME280;42935;50.966;16.992;2023-05-13T02:25:19;101964.73;;;7.34;88.67
57050;BME280;42935;50.966;16.992;2023-05-13T02:28:43;101955.72;;;7.35;86.92
57050;BME280;42935;50.966;16.992;2023-05-13T02:32:04;101959.72;;;7.35;86.62
57050;BME280;42935;50.966;16.992;2023-05-13T02:35:22;101936.91;;;7.10;87.01
57050;BME280;42935;50.966;16.992;2023-05-13T02:38:52;101959.02;;;7.28;87.50
57050;BME280;42935;50.966;16.992;2023-05-13T02:42:16;101961.86;;;7.24;86.97
57050;BME280;42935;50.966;16.992;2023-05-13T02:45:41;101962.24;;;7.25;86.64
57050;BME280;42935;50.966;16.992;2023-05-13T02:49:01;101957.50;;;7.14;86.92
57050;BME280;42935;50.966;16.992;2023-05-13T02:52:22;101963.84;;;7.25;87.18
57050;BME280;42935;50.966;16.992;2023-05-13T02:55:42;101958.22;;;7.17;87.72
57050;BME280;42935;50.966;16.992;2023-05-13T02:59:39;101969.35;;;7.17;87.56
57050;BME280;42935;50.966;16.992;2023-05-13T03:02:59;101973.09;;;7.20;87.43
57050;BME280;42935;50.966;16.992;2023-05-13T03:06:19;101962.39;;;7.22;87.07
57050;BME280;42935;50.966;16.992;2023-05-13T03:09:49;101965.74;;;7.18;87.69
57050;BME280;42935;50.966;16.992;2023-05-13T03:13:09;101980.51;;;7.12;88.00
57050;BME280;42935;50.966;16.992;2023-05-13T03:16:25;101971.83;;;7.02;89.35
57050;BME280;42935;50.966;16.992;2023-05-13T03:19:43;101982.31;;;7.03;89.63
57050;BME280;42935;50.966;16.992;2023-05-13T03:23:06;101980.38;;;7.06;88.88
57050;BME280;42935;50.966;16.992;2023-05-13T03:26:32;101987.35;;;7.06;88.55
57050;BME280;42935;50.966;16.992;2023-05-13T03:29:52;101978.11;;;7.00;88.54
57050;BME280;42935;50.966;16.992;2023-05-13T03:33:16;101985.41;;;6.99;88.45
57050;BME280;42935;50.966;16.992;2023-05-13T03:36:37;101989.30;;;6.96;88.55
57050;BME280;42935;50.966;16.992;2023-05-13T03:40:00;101984.11;;;6.96;88.82
57050;BME280;42935;50.966;16.992;2023-05-13T03:43:22;101999.19;;;7.07;89.38
57050;BME280;42935;50.966;16.992;2023-05-13T03:46:41;101986.51;;;7.02;89.35
57050;BME280;42935;50.966;16.992;2023-05-13T03:50:02;101998.69;;;7.04;89.34
57050;BME280;42935;50.966;16.992;2023-05-13T03:53:19;102000.34;;;7.06;89.67
57050;BME280;42935;50.966;16.992;2023-05-13T03:56:40;101991.31;;;6.81;94.72
57050;BME280;42935;50.966;16.992;2023-05-13T04:00:05;101990.73;;;6.97;93.52
57050;BME280;42935;50.966;16.992;2023-05-13T04:03:31;101987.86;;;7.01;92.81
57050;BME280;42935;50.966;16.992;2023-05-13T04:06:53;102014.33;;;7.33;91.43
57050;BME280;42935;50.966;16.992;2023-05-13T04:10:13;102017.09;;;7.42;90.10
57050;BME280;42935;50.966;16.992;2023-05-13T04:13:34;102015.62;;;7.46;88.98
57050;BME280;42935;50.966;16.992;2023-05-13T04:16:50;102011.51;;;7.62;88.69
57050;BME280;42935;50.966;16.992;2023-05-13T04:20:07;102010.55;;;7.59;88.92
57050;BME280;42935;50.966;16.992;2023-05-13T04:23:29;102022.57;;;7.50;92.46
57050;BME280;42935;50.966;16.992;2023-05-13T04:26:49;102009.41;;;7.62;91.16
57050;BME280;42935;50.966;16.992;2023-05-13T04:30:14;102020.12;;;7.75;90.63
57050;BME280;42935;50.966;16.992;2023-05-13T04:33:35;102020.05;;;7.81;90.44
57050;BME280;42935;50.966;16.992;2023-05-13T04:36:56;102019.34;;;7.89;90.36
57050;BME280;42935;50.966;16.992;2023-05-13T04:40:46;102023.75;;;8.12;89.42
57050;BME280;42935;50.966;16.992;2023-05-13T04:44:06;102021.43;;;8.30;88.10
57050;BME280;42935;50.966;16.992;2023-05-13T04:47:27;102025.51;;;8.52;87.96
57050;BME280;42935;50.966;16.992;2023-05-13T04:50:52;102016.84;;;8.68;85.59
57050;BME280;42935;50.966;16.992;2023-05-13T04:54:14;101988.11;;;8.64;84.77
57050;BME280;42935;50.966;16.992;2023-05-13T04:57:35;102023.94;;;9.04;83.74
57050;BME280;42935;50.966;16.992;2023-05-13T05:00:54;102024.90;;;9.22;84.15
57050;BME280;42935;50.966;16.992;2023-05-13T05:04:12;102022.43;;;9.49;81.79
57050;BME280;42935;50.966;16.992;2023-05-13T05:07:28;102018.92;;;9.59;79.63
57050;BME280;42935;50.966;16.992;2023-05-13T05:10:50;102027.83;;;9.48;80.23
57050;BME280;42935;50.966;16.992;2023-05-13T05:14:12;102032.67;;;9.64;81.46
57050;BME280;42935;50.966;16.992;2023-05-13T05:17:33;102030.24;;;9.90;82.65
57050;BME280;42935;50.966;16.992;2023-05-13T05:20:54;102029.72;;;10.07;82.78
57050;BME280;42935;50.966;16.992;2023-05-13T05:24:17;102034.40;;;9.98;80.07
57050;BME280;42935;50.966;16.992;2023-05-13T05:27:37;102033.10;;;9.93;80.65
57050;BME280;42935;50.966;16.992;2023-05-13T05:30:59;102045.26;;;9.99;80.90
57050;BME280;42935;50.966;16.992;2023-05-13T05:34:21;102055.58;;;10.01;79.38
57050;BME280;42935;50.966;16.992;2023-05-13T05:37:42;102047.95;;;10.32;81.02
57050;BME280;42935;50.966;16.992;2023-05-13T05:41:03;102049.15;;;10.54;82.99
57050;BME280;42935;50.966;16.992;2023-05-13T05:44:23;102042.85;;;10.45;80.77
57050;BME280;42935;50.966;16.992;2023-05-13T05:47:41;102051.04;;;10.53;81.86
57050;BME280;42935;50.966;16.992;2023-05-13T05:51:01;102052.85;;;10.53;82.04
57050;BME280;42935;50.966;16.992;2023-05-13T05:54:27;102050.64;;;10.71;82.90
57050;BME280;42935;50.966;16.992;2023-05-13T05:57:51;102055.77;;;11.01;82.14
57050;BME280;42935;50.966;16.992;2023-05-13T06:01:26;102051.89;;;11.21;78.85
57050;BME280;42935;50.966;16.992;2023-05-13T06:04:53;102045.07;;;11.46;77.84
57050;BME280;42935;50.966;16.992;2023-05-13T06:08:17;102056.07;;;11.63;76.73
57050;BME280;42935;50.966;16.992;2023-05-13T06:11:38;102053.92;;;11.53;77.16
57050;BME280;42935;50.966;16.992;2023-05-13T06:15:01;102054.23;;;11.73;76.28
57050;BME280;42935;50.966;16.992;2023-05-13T06:18:35;102058.16;;;11.69;75.05
57050;BME280;42935;50.966;16.992;2023-05-13T06:22:26;102052.38;;;11.80;77.26
57050;BME280;42935;50.966;16.992;2023-05-13T06:25:45;102062.10;;;11.94;79.92
57050;BME280;42935;50.966;16.992;2023-05-13T06:29:05;102059.80;;;11.89;80.13
57050;BME280;42935;50.966;16.992;2023-05-13T06:34:49;102063.10;;;12.06;79.52
57050;BME280;42935;50.966;16.992;2023-05-13T06:38:18;102071.37;;;12.02;77.97
57050;BME280;42935;50.966;16.992;2023-05-13T06:41:39;102066.66;;;12.28;82.09
57050;BME280;42935;50.966;16.992;2023-05-13T06:45:08;102060.33;;;12.18;80.40
57050;BME280;42935;50.966;16.992;2023-05-13T06:48:28;102059.55;;;12.58;75.37
57050;BME280;42935;50.966;16.992;2023-05-13T06:51:45;102066.38;;;12.89;75.20
57050;BME280;42935;50.966;16.992;2023-05-13T06:55:10;102066.09;;;12.99;75.05
57050;BME280;42935;50.966;16.992;2023-05-13T06:58:34;102066.92;;;13.14;77.21
57050;BME280;42935;50.966;16.992;2023-05-13T07:01:55;102066.31;;;13.15;75.91
57050;BME280;42935;50.966;16.992;2023-05-13T07:05:14;102066.73;;;13.17;78.07
57050;BME280;42935;50.966;16.992;2023-05-13T07:08:34;102064.68;;;13.36;73.71
57050;BME280;42935;50.966;16.992;2023-05-13T07:12:01;102059.41;;;13.61;74.38
57050;BME280;42935;50.966;16.992;2023-05-13T07:15:27;102053.78;;;13.73;72.33
57050;BME280;42935;50.966;16.992;2023-05-13T07:18:52;102063.74;;;13.91;75.95
57050;BME280;42935;50.966;16.992;2023-05-13T07:22:34;102062.69;;;14.13;76.14
57050;BME280;42935;50.966;16.992;2023-05-13T07:25:59;102062.89;;;14.04;73.66
57050;BME280;42935;50.966;16.992;2023-05-13T07:29:25;102062.17;;;14.41;76.10
57050;BME280;42935;50.966;16.992;2023-05-13T07:32:43;102058.91;;;14.72;75.06
57050;BME280;42935;50.966;16.992;2023-05-13T07:35:59;102060.55;;;14.53;74.49
57050;BME280;42935;50.966;16.992;2023-05-13T07:39:21;102068.08;;;14.74;74.15
57050;BME280;42935;50.966;16.992;2023-05-13T07:42:47;102069.34;;;14.82;77.79
57050;BME280;42935;50.966;16.992;2023-05-13T07:46:08;102068.95;;;15.21;71.39
57050;BME280;42935;50.966;16.992;2023-05-13T07:50:18;102071.11;;;15.41;75.03
57050;BME280;42935;50.966;16.992;2023-05-13T07:53:39;102075.33;;;15.53;77.57
57050;BME280;42935;50.966;16.992;2023-05-13T07:56:59;102073.07;;;15.38;75.85
57050;BME280;42935;50.966;16.992;2023-05-13T08:00:21;102068.43;;;16.01;78.07
57050;BME280;42935;50.966;16.992;2023-05-13T08:03:46;102070.66;;;16.20;71.96
57050;BME280;42935;50.966;16.992;2023-05-13T08:07:08;102070.72;;;16.24;73.29
57050;BME280;42935;50.966;16.992;2023-05-13T08:10:29;102070.33;;;16.08;72.87
57050;BME280;42935;50.966;16.992;2023-05-13T08:13:49;102062.34;;;16.14;71.30
57050;BME280;42935;50.966;16.992;2023-05-13T08:17:07;102065.84;;;16.44;72.51
57050;BME280;42935;50.966;16.992;2023-05-13T08:20:29;102064.84;;;16.82;70.86
57050;BME280;42935;50.966;16.992;2023-05-13T08:23:52;102072.82;;;16.78;68.85
57050;BME280;42935;50.966;16.992;2023-05-13T08:27:13;102071.56;;;17.28;70.02
57050;BME280;42935;50.966;16.992;2023-05-13T08:30:35;102072.83;;;17.22;72.17
57050;BME280;42935;50.966;16.992;2023-05-13T08:34:03;102076.99;;;16.72;69.87
57050;BME280;42935;50.966;16.992;2023-05-13T08:37:23;102069.77;;;16.74;72.42
57050;BME280;42935;50.966;16.992;2023-05-13T08:40:45;102072.73;;;17.18;70.42
57050;BME280;42935;50.966;16.992;2023-05-13T08:44:06;102069.70;;;17.16;70.41
57050;BME280;42935;50.966;16.992;2023-05-13T08:47:31;102068.61;;;17.39;68.55
57050;BME280;42935;50.966;16.992;2023-05-13T08:50:56;102060.97;;;17.41;67.62
57050;BME280;42935;50.966;16.992;2023-05-13T08:54:17;102066.02;;;17.71;67.75
57050;BME280;42935;50.966;16.992;2023-05-13T08:57:41;102066.91;;;17.90;65.36
57050;BME280;42935;50.966;16.992;2023-05-13T09:01:00;102066.42;;;17.79;63.68
57050;BME280;42935;50.966;16.992;2023-05-13T09:04:21;102058.59;;;17.85;59.03
57050;BME280;42935;50.966;16.992;2023-05-13T09:07:39;102053.22;;;18.32;59.46
57050;BME280;42935;50.966;16.992;2023-05-13T09:11:06;102053.87;;;17.91;62.27
57050;BME280;42935;50.966;16.992;2023-05-13T09:14:32;102062.45;;;17.80;61.05
57050;BME280;42935;50.966;16.992;2023-05-13T09:17:58;102048.36;;;18.30;61.50
57050;BME280;42935;50.966;16.992;2023-05-13T09:21:25;102064.12;;;17.86;58.08
57050;BME280;42935;50.966;16.992;2023-05-13T09:24:52;102059.94;;;18.16;58.58
57050;BME280;42935;50.966;16.992;2023-05-13T09:28:14;102063.13;;;18.54;57.87
57050;BME280;42935;50.966;16.992;2023-05-13T18:08:27;101959.46;;;15.78;56.96
57050;BME280;42935;50.966;16.992;2023-05-13T18:11:56;101965.41;;;15.84;56.04
57050;BME280;42935;50.966;16.992;2023-05-13T18:15:17;101966.91;;;15.97;56.15
57050;BME280;42935;50.966;16.992;2023-05-13T18:18:46;101962.78;;;15.93;56.39
57050;BME280;42935;50.966;16.992;2023-05-13T18:22:15;101969.84;;;15.94;56.50
57050;BME280;42935;50.966;16.992;2023-05-13T18:25:36;101970.61;;;15.85;56.62
57050;BME280;42935;50.966;16.992;2023-05-13T18:28:58;101972.19;;;15.86;56.47
57050;BME280;42935;50.966;16.992;2023-05-13T18:32:23;101976.14;;;15.84;56.42
57050;BME280;42935;50.966;16.992;2023-05-13T18:35:48;101975.54;;;15.77;56.41
57050;BME280;42935;50.966;16.992;2023-05-13T18:39:08;101982.33;;;15.72;56.66
57050;BME280;42935;50.966;16.992;2023-05-13T18:42:39;101986.22;;;15.57;56.77
57050;BME280;42935;50.966;16.992;2023-05-13T18:45:59;101982.95;;;15.39;57.30
57050;BME280;42935;50.966;16.992;2023-05-13T18:49:20;101986.52;;;15.23;57.62
57050;BME280;42935;50.966;16.992;2023-05-13T18:52:45;101975.21;;;15.03;57.70
57050;BME280;42935;50.966;16.992;2023-05-13T18:56:06;101996.54;;;15.02;58.03
57050;BME280;42935;50.966;16.992;2023-05-13T18:59:34;102001.01;;;14.92;58.46
57050;BME280;42935;50.966;16.992;2023-05-13T19:03:00;102006.64;;;14.81;58.81
57050;BME280;42935;50.966;16.992;2023-05-13T19:06:20;102006.45;;;14.64;59.36
57050;BME280;42935;50.966;16.992;2023-05-13T19:10:06;102017.92;;;14.44;60.32
57050;BME280;42935;50.966;16.992;2023-05-13T19:13:25;102013.55;;;14.29;60.47
57050;BME280;42935;50.966;16.992;2023-05-13T19:16:49;102018.98;;;14.18;61.03
57050;BME280;42935;50.966;16.992;2023-05-13T19:20:09;102020.92;;;14.03;61.21
57050;BME280;42935;50.966;16.992;2023-05-13T19:23:30;102022.91;;;13.90;61.56
57050;BME280;42935;50.966;16.992;2023-05-13T19:26:58;102023.35;;;13.74;62.41
57050;BME280;42935;50.966;16.992;2023-05-13T19:30:23;102022.11;;;13.38;64.38
57050;BME280;42935;50.966;16.992;2023-05-13T19:33:53;102024.16;;;13.37;64.05
57050;BME280;42935;50.966;16.992;2023-05-13T19:37:18;102023.45;;;13.30;63.72
57050;BME280;42935;50.966;16.992;2023-05-13T19:40:42;102024.61;;;13.19;64.25
57050;BME280;42935;50.966;16.992;2023-05-13T19:44:09;102022.85;;;13.10;64.72
57050;BME280;42935;50.966;16.992;2023-05-13T19:47:34;102017.40;;;13.01;65.11
57050;BME280;42935;50.966;16.992;2023-05-13T19:51:03;102026.09;;;12.97;65.28
57050;BME280;42935;50.966;16.992;2023-05-13T19:54:27;102020.32;;;12.86;65.25
57050;BME280;42935;50.966;16.992;2023-05-13T19:57:53;102024.62;;;12.83;65.83
57050;BME280;42935;50.966;16.992;2023-05-13T20:01:11;102028.87;;;12.76;66.29
57050;BME280;42935;50.966;16.992;2023-05-13T20:04:41;102026.40;;;12.69;66.30
57050;BME280;42935;50.966;16.992;2023-05-13T20:08:06;102025.70;;;12.57;66.90
57050;BME280;42935;50.966;16.992;2023-05-13T20:11:34;102027.84;;;12.59;67.01
57050;BME280;42935;50.966;16.992;2023-05-13T20:14:54;102027.23;;;12.51;67.13
57050;BME280;42935;50.966;16.992;2023-05-13T20:18:20;102028.03;;;12.32;67.49
57050;BME280;42935;50.966;16.992;2023-05-13T20:21:48;102011.66;;;11.93;69.25
57050;BME280;42935;50.966;16.992;2023-05-13T20:25:17;102023.52;;;11.74;70.58
57050;BME280;42935;50.966;16.992;2023-05-13T20:28:40;102022.95;;;11.01;74.26
57050;BME280;42935;50.966;16.992;2023-05-13T20:32:03;102019.02;;;10.97;75.01
57050;BME280;42935;50.966;16.992;2023-05-13T20:35:24;102018.66;;;11.10;74.58
57050;BME280;42935;50.966;16.992;2023-05-13T20:38:49;102017.34;;;11.07;75.13
57050;BME280;42935;50.966;16.992;2023-05-13T20:42:18;102016.85;;;11.03;74.13
57050;BME280;42935;50.966;16.992;2023-05-13T20:45:44;102013.46;;;11.06;73.91
57050;BME280;42935;50.966;16.992;2023-05-13T20:49:09;102010.85;;;11.11;72.71
57050;BME280;42935;50.966;16.992;2023-05-13T20:52:29;102016.94;;;10.95;73.55
57050;BME280;42935;50.966;16.992;2023-05-13T20:55:52;102017.91;;;11.02;73.07
57050;BME280;42935;50.966;16.992;2023-05-13T20:59:19;102025.65;;;10.91;73.66
57050;BME280;42935;50.966;16.992;2023-05-13T21:02:54;102010.70;;;10.39;75.88
57050;BME280;42935;50.966;16.992;2023-05-13T21:06:19;102024.44;;;10.59;75.54
57050;BME280;42935;50.966;16.992;2023-05-13T21:09:43;102027.05;;;10.62;74.96
57050;BME280;42935;50.966;16.992;2023-05-13T21:13:07;102024.59;;;10.47;75.67
57050;BME280;42935;50.966;16.992;2023-05-13T21:16:33;102031.23;;;10.54;75.87
57050;BME280;42935;50.966;16.992;2023-05-13T21:20:02;102019.12;;;10.43;76.53
57050;BME280;42935;50.966;16.992;2023-05-13T21:23:28;102029.17;;;10.28;78.00
57050;BME280;42935;50.966;16.992;2023-05-13T21:26:49;102030.39;;;10.34;77.53
57050;BME280;42935;50.966;16.992;2023-05-13T21:30:15;102034.83;;;10.32;77.82
57050;BME280;42935;50.966;16.992;2023-05-13T21:33:40;102027.77;;;10.20;78.24
57050;BME280;42935;50.966;16.992;2023-05-13T21:37:01;102030.38;;;10.26;77.85
57050;BME280;42935;50.966;16.992;2023-05-13T21:40:30;102028.76;;;9.98;79.38
57050;BME280;42935;50.966;16.992;2023-05-13T21:44:00;102025.81;;;9.91;79.87
57050;BME280;42935;50.966;16.992;2023-05-13T21:47:22;102025.41;;;9.68;81.46
57050;BME280;42935;50.966;16.992;2023-05-13T21:50:40;102025.38;;;9.55;82.62
57050;BME280;42935;50.966;16.992;2023-05-13T21:54:05;102006.09;;;9.53;80.87
57050;BME280;42935;50.966;16.992;2023-05-13T21:57:25;102024.27;;;9.62;80.61
57050;BME280;42935;50.966;16.992;2023-05-13T22:00:57;102024.56;;;9.38;83.73
57050;BME280;42935;50.966;16.992;2023-05-13T22:04:24;102018.05;;;9.29;83.72
57050;BME280;42935;50.966;16.992;2023-05-13T22:07:47;102016.82;;;9.29;83.67
57050;BME280;42935;50.966;16.992;2023-05-13T22:11:07;102030.14;;;9.27;85.41
57050;BME280;42935;50.966;16.992;2023-05-13T22:14:28;102029.87;;;8.99;88.84
57050;BME280;42935;50.966;16.992;2023-05-13T22:17:53;102027.19;;;9.00;88.65
57050;BME280;42935;50.966;16.992;2023-05-13T22:21:22;102024.66;;;8.99;86.40
57050;BME280;42935;50.966;16.992;2023-05-13T22:24:48;102028.34;;;9.14;85.25
57050;BME280;42935;50.966;16.992;2023-05-13T22:28:05;102017.34;;;8.95;87.40
57050;BME280;42935;50.966;16.992;2023-05-13T22:31:24;102019.52;;;8.64;90.91
57050;BME280;42935;50.966;16.992;2023-05-13T22:34:49;102009.03;;;8.22;97.18
57050;BME280;42935;50.966;16.992;2023-05-13T22:38:13;102012.54;;;8.13;97.49
57050;BME280;42935;50.966;16.992;2023-05-13T22:41:38;102006.16;;;8.30;95.95
57050;BME280;42935;50.966;16.992;2023-05-13T22:45:05;102014.95;;;8.46;92.71
57050;BME280;42935;50.966;16.992;2023-05-13T22:48:21;102011.52;;;8.27;93.69
57050;BME280;42935;50.966;16.992;2023-05-13T22:51:49;102013.22;;;8.28;94.21
57050;BME280;42935;50.966;16.992;2023-05-13T22:55:16;102010.26;;;7.80;98.56
57050;BME280;42935;50.966;16.992;2023-05-13T22:58:38;102015.55;;;7.60;100.00
57050;BME280;42935;50.966;16.992;2023-05-13T23:02:06;102020.63;;;7.73;100.00
57050;BME280;42935;50.966;16.992;2023-05-13T23:05:26;101975.59;;;7.45;99.34
57050;BME280;42935;50.966;16.992;2023-05-13T23:08:50;102027.23;;;7.87;96.65
57050;BME280;42935;50.966;16.992;2023-05-13T23:12:10;102017.37;;;7.92;94.25
57050;BME280;42935;50.966;16.992;2023-05-13T23:15:32;102013.55;;;7.94;92.80
57050;BME280;42935;50.966;16.992;2023-05-13T23:18:58;102017.42;;;7.87;93.11
57050;BME280;42935;50.966;16.992;2023-05-13T23:22:19;102013.23;;;7.70;95.44
57050;BME280;42935;50.966;16.992;2023-05-13T23:25:42;102004.98;;;7.68;95.27
57050;BME280;42935;50.966;16.992;2023-05-13T23:29:03;102002.87;;;7.66;95.48
57050;BME280;42935;50.966;16.992;2023-05-13T23:32:24;102003.01;;;7.40;99.90
57050;BME280;42935;50.966;16.992;2023-05-13T23:35:53;102002.13;;;6.97;100.00
57050;BME280;42935;50.966;16.992;2023-05-13T23:39:14;102004.58;;;6.84;100.00
57050;BME280;42935;50.966;16.992;2023-05-13T23:42:34;102009.36;;;6.73;100.00
57050;BME280;42935;50.966;16.992;2023-05-13T23:45:53;102008.85;;;6.86;100.00
57050;BME280;42935;50.966;16.992;2023-05-13T23:49:13;102006.83;;;7.12;100.00
57050;BME280;42935;50.966;16.992;2023-05-13T23:52:39;102009.44;;;6.55;100.00
57050;BME280;42935;50.966;16.992;2023-05-13T23:56:04;102005.02;;;6.74;100.00
57050;BME280;42935;50.966;16.992;2023-05-13T23:59:28;101977.45;;;6.69;100.00
